createdAt,value
2023-01-29T00:01:49.085Z,65.46
2023-01-29T00:04:15.783Z,65.58
2023-01-29T00:06:42.562Z,65.81
2023-01-29T00:09:09.425Z,66.25
2023-01-29T00:11:36.216Z,65.84
2023-01-29T00:14:02.915Z,66.29
2023-01-29T00:16:29.608Z,66.92
2023-01-29T00:18:56.282Z,67.05
2023-01-29T00:21:23.360Z,66.62
2023-01-29T00:23:50.963Z,65.93
2023-01-29T00:26:17.821Z,65.37
2023-01-29T00:28:47.930Z,65.47
2023-01-29T00:31:20.079Z,65.13
2023-01-29T00:33:47.426Z,65.73
2023-01-29T00:36:15.512Z,66.46
2023-01-29T00:38:42.213Z,66.47
2023-01-29T00:41:29.934Z,66.38
2023-01-29T00:44:15.573Z,67.05
2023-01-29T00:46:42.443Z,67.30
2023-01-29T00:49:09.167Z,68.19
2023-01-29T00:51:37.276Z,68.40
2023-01-29T00:54:06.675Z,67.95
2023-01-29T00:56:36.378Z,67.53
2023-01-29T00:59:04.030Z,67.34
2023-01-29T01:01:49.041Z,67.20
2023-01-29T01:04:15.803Z,66.95
2023-01-29T01:06:42.553Z,66.83
2023-01-29T01:09:29.393Z,67.10
2023-01-29T01:11:56.174Z,66.08
2023-01-29T01:14:22.830Z,65.52
2023-01-29T01:16:49.620Z,65.06
2023-01-29T01:19:16.511Z,64.83
2023-01-29T01:21:45.462Z,65.51
2023-01-29T01:24:13.064Z,66.43
2023-01-29T01:26:40.057Z,66.40
2023-01-29T01:29:06.896Z,66.66
2023-01-29T01:31:33.594Z,66.99
2023-01-29T01:34:00.966Z,66.13
2023-01-29T01:36:27.649Z,66.89
2023-01-29T01:38:54.882Z,67.39
2023-01-29T01:41:22.809Z,67.43
2023-01-29T01:44:00.723Z,67.03
2023-01-29T01:46:35.973Z,67.10
2023-01-29T01:49:09.797Z,65.03
2023-01-29T01:51:39.853Z,63.69
2023-01-29T01:54:09.425Z,63.71
2023-01-29T01:56:42.726Z,62.75
2023-01-29T01:59:12.226Z,62.53
2023-01-29T02:01:41.739Z,62.23
2023-01-29T02:04:29.738Z,62.84
2023-01-29T02:07:16.622Z,63.11
2023-01-29T02:09:51.373Z,64.07
2023-01-29T02:12:18.846Z,65.42
2023-01-29T02:14:45.895Z,65.98
2023-01-29T02:17:15.392Z,66.22
2023-01-29T02:20:03.613Z,65.91
2023-01-29T02:22:56.488Z,65.65
2023-01-29T02:25:37.972Z,65.98
2023-01-29T02:28:36.686Z,64.60
2023-01-29T02:31:19.176Z,63.85
2023-01-29T02:34:06.058Z,63.74
2023-01-29T02:36:46.860Z,65.45
2023-01-29T02:39:24.247Z,66.95
2023-01-29T02:42:29.696Z,67.24
2023-01-29T02:45:00.345Z,66.63
2023-01-29T02:47:40.147Z,66.04
2023-01-29T02:50:15.921Z,66.55
2023-01-29T02:53:12.821Z,67.46
2023-01-29T02:55:55.771Z,67.57
2023-01-29T02:58:34.951Z,66.85
2023-01-29T03:01:10.169Z,66.52
2023-01-29T03:03:40.982Z,66.10
2023-01-29T03:06:20.032Z,65.79
2023-01-29T03:08:55.482Z,65.17
2023-01-29T03:11:22.368Z,66.18
2023-01-29T03:14:16.829Z,66.88
2023-01-29T03:16:53.791Z,66.64
2023-01-29T03:19:39.972Z,66.38
2023-01-29T03:22:16.653Z,66.90
2023-01-29T03:25:16.737Z,66.73
2023-01-29T03:28:07.133Z,66.22
2023-01-29T03:31:01.087Z,65.87
2023-01-29T03:33:41.029Z,65.65
2023-01-29T03:36:16.385Z,65.51
2023-01-29T03:38:43.854Z,65.65
2023-01-29T03:41:19.541Z,65.23
2023-01-29T03:44:21.758Z,65.18
2023-01-29T03:47:04.724Z,66.32
2023-01-29T03:49:52.211Z,67.12
2023-01-29T03:52:32.148Z,66.86
2023-01-29T03:55:18.288Z,67.20
2023-01-29T03:57:59.813Z,67.72
2023-01-29T04:00:29.801Z,67.40
2023-01-29T04:03:17.727Z,66.29
2023-01-29T04:05:53.302Z,65.89
2023-01-29T04:08:29.847Z,66.24
2023-01-29T04:11:03.866Z,66.43
2023-01-29T04:13:33.698Z,67.54
2023-01-29T04:16:01.610Z,68.13
2023-01-29T04:18:47.933Z,68.10
2023-01-29T04:21:15.703Z,68.16
2023-01-29T04:23:43.876Z,67.66
2023-01-29T04:26:22.979Z,67.44
2023-01-29T04:28:54.123Z,67.53
2023-01-29T04:31:23.581Z,67.74
2023-01-29T04:34:12.860Z,68.49
2023-01-29T04:36:53.708Z,68.54
2023-01-29T04:39:28.255Z,68.70
2023-01-29T04:42:00.834Z,68.92
2023-01-29T04:44:49.760Z,68.98
2023-01-29T04:47:36.746Z,67.95
2023-01-29T04:50:19.002Z,67.75
2023-01-29T04:52:54.831Z,68.09
2023-01-29T04:55:26.726Z,68.00
2023-01-29T04:58:14.765Z,68.32
2023-01-29T05:00:43.443Z,68.30
2023-01-29T05:03:12.413Z,68.91
2023-01-29T05:05:41.621Z,69.41
2023-01-29T05:08:09.529Z,69.22
2023-01-29T05:10:36.978Z,69.15
2023-01-29T05:13:05.825Z,68.52
2023-01-29T05:15:38.585Z,68.32
2023-01-29T05:18:08.783Z,68.45
2023-01-29T05:20:38.098Z,69.53
2023-01-29T05:23:05.029Z,69.70
2023-01-29T05:25:33.071Z,69.64
2023-01-29T05:28:06.336Z,69.36
2023-01-29T05:30:33.816Z,68.82
2023-01-29T05:33:00.655Z,68.52
2023-01-29T05:35:28.503Z,68.55
2023-01-29T05:37:58.213Z,68.73
2023-01-29T05:40:25.256Z,70.13
2023-01-29T05:42:52.078Z,70.08
2023-01-29T05:45:18.815Z,70.46
2023-01-29T05:47:46.277Z,70.44
2023-01-29T05:50:14.117Z,69.90
2023-01-29T05:52:40.982Z,69.74
2023-01-29T05:55:09.383Z,70.36
2023-01-29T05:57:36.163Z,70.02
2023-01-29T06:00:04.432Z,69.62
2023-01-29T06:02:39.437Z,69.70
2023-01-29T06:05:06.487Z,69.66
2023-01-29T06:07:33.177Z,69.35
2023-01-29T06:09:59.815Z,69.64
2023-01-29T06:12:27.453Z,69.63
2023-01-29T06:14:54.079Z,69.88
2023-01-29T06:17:20.743Z,69.65
2023-01-29T06:19:47.465Z,69.89
2023-01-29T06:22:14.065Z,70.39
2023-01-29T06:24:40.743Z,70.44
2023-01-29T06:27:07.521Z,70.09
2023-01-29T06:29:34.271Z,69.96
2023-01-29T06:32:01.155Z,70.16
2023-01-29T06:34:27.804Z,70.69
2023-01-29T06:36:54.470Z,70.45
2023-01-29T06:39:21.178Z,70.48
2023-01-29T06:41:47.881Z,71.48
2023-01-29T06:44:14.726Z,70.37
2023-01-29T06:46:41.334Z,70.36
2023-01-29T06:49:08.052Z,70.28
2023-01-29T06:51:34.861Z,70.24
2023-01-29T06:54:01.580Z,70.40
2023-01-29T06:56:28.255Z,70.28
2023-01-29T06:58:54.949Z,69.94
2023-01-29T07:01:35.188Z,70.10
2023-01-29T07:04:02.966Z,70.19
2023-01-29T07:06:30.283Z,70.52
2023-01-29T07:08:57.048Z,69.85
2023-01-29T07:11:23.928Z,70.35
2023-01-29T07:13:50.596Z,70.57
2023-01-29T07:16:19.051Z,71.37
2023-01-29T07:18:45.868Z,71.76
2023-01-29T07:21:12.530Z,72.02
2023-01-29T07:23:39.155Z,71.82
2023-01-29T07:26:06.333Z,72.35
2023-01-29T07:28:36.870Z,71.55
2023-01-29T07:31:04.486Z,70.94
2023-01-29T07:33:31.720Z,70.58
2023-01-29T07:35:58.394Z,70.63
2023-01-29T07:38:25.438Z,70.63
2023-01-29T07:40:53.063Z,70.47
2023-01-29T07:43:19.839Z,70.65
2023-01-29T07:45:46.530Z,71.40
2023-01-29T07:48:13.630Z,71.86
2023-01-29T07:50:40.890Z,72.10
2023-01-29T07:53:07.717Z,71.72
2023-01-29T07:55:34.436Z,72.08
2023-01-29T07:58:02.997Z,72.34
2023-01-29T08:00:31.463Z,71.85
2023-01-29T08:03:05.947Z,71.41
2023-01-29T08:05:32.818Z,70.89
2023-01-29T08:08:06.503Z,71.26
2023-01-29T08:10:35.125Z,71.17
2023-01-29T08:13:02.683Z,71.52
2023-01-29T08:15:29.814Z,71.86
2023-01-29T08:20:43.593Z,71.97
2023-01-29T08:23:15.137Z,71.70
2023-01-29T08:25:41.962Z,71.48
2023-01-29T08:28:08.954Z,71.74
2023-01-29T08:30:36.057Z,71.66
2023-01-29T08:33:03.928Z,72.23
2023-01-29T08:35:30.881Z,71.48
2023-01-29T08:38:03.140Z,71.08
2023-01-29T08:40:32.116Z,71.23
2023-01-29T08:43:03.525Z,71.30
2023-01-29T08:45:34.059Z,70.70
2023-01-29T08:48:00.995Z,70.61
2023-01-29T08:50:27.783Z,70.55
2023-01-29T08:52:59.065Z,70.65
2023-01-29T08:55:26.311Z,69.85
2023-01-29T08:57:53.001Z,69.20
2023-01-29T09:00:20.047Z,68.63
2023-01-29T09:02:46.762Z,68.14
2023-01-29T09:05:13.467Z,68.21
2023-01-29T09:07:40.179Z,66.75
2023-01-29T09:10:07.086Z,67.22
2023-01-29T09:12:33.777Z,66.60
2023-01-29T09:15:00.437Z,66.76
2023-01-29T09:17:27.115Z,66.74
2023-01-29T09:19:53.734Z,66.44
2023-01-29T09:22:20.910Z,66.25
2023-01-29T09:24:47.583Z,66.61
2023-01-29T09:27:14.296Z,67.15
2023-01-29T09:29:41.062Z,67.04
2023-01-29T09:32:07.724Z,66.78
2023-01-29T09:34:34.872Z,67.34
2023-01-29T09:37:01.519Z,66.93
2023-01-29T09:39:28.295Z,66.57
2023-01-29T09:42:13.818Z,66.64
2023-01-29T09:44:54.129Z,67.01
2023-01-29T09:47:24.362Z,66.42
2023-01-29T09:50:05.680Z,65.11
2023-01-29T09:52:35.894Z,65.51
2023-01-29T09:55:02.532Z,65.15
2023-01-29T09:57:42.616Z,63.79
2023-01-29T10:00:16.245Z,64.21
2023-01-29T10:03:10.485Z,64.62
2023-01-29T10:05:52.592Z,64.25
2023-01-29T10:08:45.512Z,63.62
2023-01-29T10:11:21.018Z,64.83
2023-01-29T10:14:08.091Z,63.71
2023-01-29T10:16:50.042Z,63.76
2023-01-29T10:19:39.551Z,63.67
2023-01-29T10:22:31.122Z,64.37
2023-01-29T10:25:00.844Z,64.19
2023-01-29T10:27:34.571Z,63.82
2023-01-29T10:30:03.614Z,63.60
2023-01-29T10:32:31.232Z,62.99
2023-01-29T10:35:02.961Z,62.16
2023-01-29T10:37:41.116Z,62.18
2023-01-29T10:40:29.498Z,61.68
2023-01-29T10:43:06.358Z,62.48
2023-01-29T10:45:48.247Z,62.65
2023-01-29T10:48:27.707Z,62.77
2023-01-29T10:51:25.274Z,62.31
2023-01-29T10:54:10.283Z,62.95
2023-01-29T10:56:55.250Z,63.45
2023-01-29T10:59:39.638Z,63.72
2023-01-29T11:02:18.235Z,61.62
2023-01-29T11:04:45.576Z,63.24
2023-01-29T11:07:13.027Z,63.34
2023-01-29T11:09:51.540Z,62.83
2023-01-29T11:12:22.791Z,63.18
2023-01-29T11:15:11.685Z,63.02
2023-01-29T11:17:38.417Z,63.10
2023-01-29T11:20:06.893Z,63.65
2023-01-29T11:22:35.140Z,63.10
2023-01-29T11:25:10.013Z,62.39
2023-01-29T11:27:44.199Z,63.02
2023-01-29T11:30:24.163Z,62.41
2023-01-29T11:32:56.935Z,62.65
2023-01-29T11:35:25.490Z,62.43
2023-01-29T11:37:52.184Z,62.92
2023-01-29T11:40:19.078Z,63.02
2023-01-29T11:42:47.077Z,63.68
2023-01-29T11:45:22.729Z,63.40
2023-01-29T11:47:54.150Z,63.12
2023-01-29T11:50:24.605Z,62.87
2023-01-29T11:52:51.734Z,62.75
2023-01-29T11:55:22.074Z,62.48
2023-01-29T11:57:51.611Z,63.08
2023-01-29T12:00:27.075Z,62.61
2023-01-29T12:02:53.635Z,63.11
2023-01-29T12:05:23.727Z,63.30
2023-01-29T12:08:01.578Z,63.30
2023-01-29T12:10:42.355Z,62.58
2023-01-29T12:13:19.959Z,63.00
2023-01-29T12:15:48.178Z,63.68
2023-01-29T12:18:38.406Z,62.92
2023-01-29T12:21:16.002Z,62.87
2023-01-29T12:24:06.783Z,62.10
2023-01-29T12:26:36.847Z,62.69
2023-01-29T12:29:31.866Z,62.44
2023-01-29T12:32:05.885Z,62.97
2023-01-29T12:34:46.327Z,62.82
2023-01-29T12:37:21.850Z,62.73
2023-01-29T12:39:49.837Z,63.14
2023-01-29T12:42:18.095Z,63.15
2023-01-29T12:44:47.711Z,62.97
2023-01-29T12:47:57.709Z,62.46
2023-01-29T12:50:29.022Z,62.91
2023-01-29T12:53:20.871Z,62.33
2023-01-29T12:55:55.300Z,62.27
2023-01-29T12:58:44.488Z,61.30
2023-01-29T13:01:15.615Z,61.97
2023-01-29T13:04:06.341Z,60.90
2023-01-29T13:06:42.790Z,61.80
2023-01-29T13:09:17.315Z,61.49
2023-01-29T13:11:52.350Z,61.47
2023-01-29T13:14:38.850Z,61.78
2023-01-29T13:17:18.529Z,60.68
2023-01-29T13:19:48.024Z,61.44
2023-01-29T13:22:22.762Z,62.10
2023-01-29T13:24:58.814Z,62.70
2023-01-29T13:27:32.181Z,62.79
2023-01-29T13:29:59.701Z,62.73
2023-01-29T13:32:28.572Z,62.83
2023-01-29T13:35:19.807Z,62.68
2023-01-29T13:37:49.292Z,62.61
2023-01-29T13:40:23.114Z,62.01
2023-01-29T13:42:50.393Z,62.56
2023-01-29T13:45:26.144Z,62.48
2023-01-29T13:47:53.278Z,62.71
2023-01-29T13:50:33.509Z,62.68
2023-01-29T13:53:02.289Z,62.49
2023-01-29T13:55:34.935Z,62.46
2023-01-29T13:58:02.930Z,62.62
2023-01-29T14:00:35.499Z,61.89
2023-01-29T14:03:05.100Z,62.25
2023-01-29T14:05:31.821Z,62.44
2023-01-29T14:08:14.980Z,62.47
2023-01-29T14:10:42.729Z,62.26
2023-01-29T14:13:15.621Z,62.53
2023-01-29T14:15:42.410Z,62.53
2023-01-29T14:18:09.037Z,62.32
2023-01-29T14:20:51.821Z,62.05
2023-01-29T14:23:27.454Z,61.94
2023-01-29T14:25:54.166Z,62.05
2023-01-29T14:28:24.000Z,62.44
2023-01-29T14:30:51.250Z,62.60
2023-01-29T14:33:39.434Z,61.92
2023-01-29T14:36:13.467Z,62.08
2023-01-29T14:38:52.520Z,62.01
2023-01-29T14:41:31.882Z,62.72
2023-01-29T14:44:35.836Z,62.67
2023-01-29T14:47:04.748Z,62.74
2023-01-29T14:49:49.373Z,62.58
2023-01-29T14:52:17.362Z,62.73
2023-01-29T14:54:46.395Z,63.19
2023-01-29T14:57:15.309Z,63.36
2023-01-29T14:59:54.360Z,63.66
2023-01-29T15:02:42.114Z,63.51
2023-01-29T15:05:21.827Z,64.44
2023-01-29T15:08:02.317Z,63.30
2023-01-29T15:10:43.074Z,64.13
2023-01-29T15:13:24.887Z,65.45
2023-01-29T15:15:57.975Z,65.71
2023-01-29T15:18:27.665Z,66.41
2023-01-29T15:21:05.939Z,66.58
2023-01-29T15:23:34.179Z,65.81
2023-01-29T15:26:06.558Z,66.02
2023-01-29T15:28:34.641Z,65.48
2023-01-29T15:31:07.893Z,65.78
2023-01-29T15:33:34.944Z,66.91
2023-01-29T15:36:09.540Z,66.03
2023-01-29T15:38:36.368Z,66.24
2023-01-29T15:41:16.665Z,66.43
2023-01-29T15:43:45.801Z,66.35
2023-01-29T15:46:20.863Z,66.77
2023-01-29T15:48:49.243Z,67.06
2023-01-29T15:51:17.950Z,67.32
2023-01-29T15:53:49.178Z,67.30
2023-01-29T15:56:18.814Z,67.06
2023-01-29T15:58:48.458Z,67.26
2023-01-29T16:01:15.670Z,67.55
2023-01-29T16:03:42.806Z,67.57
2023-01-29T16:06:09.813Z,67.63
2023-01-29T16:08:36.707Z,67.55
2023-01-29T16:11:05.198Z,67.48
2023-01-29T16:13:34.295Z,67.58
2023-01-29T16:16:03.505Z,67.45
2023-01-29T16:18:47.718Z,67.90
2023-01-29T16:21:33.275Z,68.10
2023-01-29T16:24:02.736Z,68.02
2023-01-29T16:26:34.473Z,67.91
2023-01-29T16:29:10.451Z,67.93
2023-01-29T16:31:38.040Z,67.51
2023-01-29T16:34:24.636Z,67.82
2023-01-29T16:36:53.427Z,68.02
2023-01-29T16:39:23.320Z,67.95
2023-01-29T16:42:20.009Z,68.86
2023-01-29T16:44:51.528Z,68.91
2023-01-29T16:47:34.930Z,69.18
2023-01-29T16:50:24.316Z,68.86
2023-01-29T16:53:11.532Z,68.99
2023-01-29T16:55:45.520Z,68.91
2023-01-29T16:58:32.406Z,69.46
2023-01-29T17:01:03.238Z,69.62
2023-01-29T17:03:31.931Z,69.44
2023-01-29T17:05:59.417Z,69.60
2023-01-29T17:08:30.869Z,69.92
2023-01-29T17:10:57.828Z,70.03
2023-01-29T17:13:30.789Z,70.13
2023-01-29T17:16:04.852Z,70.43
2023-01-29T17:18:31.738Z,70.30
2023-01-29T17:20:58.394Z,70.35
2023-01-29T17:23:25.093Z,70.26
2023-01-29T17:25:51.804Z,70.35
2023-01-29T17:28:18.603Z,70.35
2023-01-29T17:30:56.569Z,70.54
2023-01-29T17:33:31.951Z,70.47
2023-01-29T17:35:58.681Z,70.40
2023-01-29T17:38:26.714Z,70.06
2023-01-29T17:40:58.119Z,70.60
2023-01-29T17:43:24.817Z,70.79
2023-01-29T17:45:51.765Z,70.75
2023-01-29T17:48:22.335Z,70.68
2023-01-29T17:50:53.008Z,70.64
2023-01-29T17:53:21.187Z,70.42
2023-01-29T17:55:48.259Z,71.04
2023-01-29T17:58:23.694Z,71.52
2023-01-29T18:00:50.953Z,70.78
2023-01-29T18:03:17.649Z,71.14
2023-01-29T18:05:45.797Z,71.56
2023-01-29T18:08:21.104Z,71.81
2023-01-29T18:10:47.783Z,71.47
2023-01-29T18:13:14.538Z,71.55
2023-01-29T18:15:41.211Z,71.46
2023-01-29T18:18:12.523Z,71.47
2023-01-29T18:20:40.215Z,71.87
2023-01-29T18:23:08.060Z,71.79
2023-01-29T18:25:35.030Z,71.80
2023-01-29T18:28:02.020Z,71.85
2023-01-29T18:30:29.033Z,71.01
2023-01-29T18:32:55.800Z,71.63
2023-01-29T18:35:22.646Z,71.97
2023-01-29T18:37:49.650Z,72.65
2023-01-29T18:40:17.359Z,72.42
2023-01-29T18:42:44.993Z,72.96
2023-01-29T18:45:12.437Z,72.75
2023-01-29T18:47:39.849Z,72.73
2023-01-29T18:50:07.367Z,72.60
2023-01-29T18:52:34.398Z,72.37
2023-01-29T18:55:01.285Z,72.71
2023-01-29T18:58:26.020Z,72.79
2023-01-29T19:00:15.381Z,72.70
2023-01-29T19:02:42.901Z,72.47
2023-01-29T19:05:09.842Z,72.97
2023-01-29T19:07:36.577Z,72.71
2023-01-29T19:10:06.626Z,72.65
2023-01-29T19:12:34.310Z,72.24
2023-01-29T19:15:01.060Z,72.12
2023-01-29T19:17:27.730Z,72.02
2023-01-29T19:19:56.367Z,72.38
2023-01-29T19:22:23.066Z,72.03
2023-01-29T19:24:49.813Z,72.32
2023-01-29T19:27:16.541Z,72.08
2023-01-29T19:29:43.138Z,72.36
2023-01-29T19:32:09.911Z,72.63
2023-01-29T19:34:36.732Z,72.80
2023-01-29T19:37:03.701Z,72.65
2023-01-29T19:39:33.709Z,72.72
2023-01-29T19:42:01.349Z,72.78
2023-01-29T19:44:28.002Z,73.06
2023-01-29T19:46:54.639Z,73.17
2023-01-29T19:49:21.501Z,73.04
2023-01-29T19:51:48.181Z,73.25
2023-01-29T19:54:14.829Z,73.36
2023-01-29T19:56:41.539Z,73.26
2023-01-29T19:59:08.225Z,73.46
2023-01-29T20:01:34.963Z,73.41
2023-01-29T20:04:03.116Z,73.43
2023-01-29T20:06:33.009Z,73.51
2023-01-29T20:09:02.057Z,73.59
2023-01-29T20:11:29.131Z,73.53
2023-01-29T20:13:55.849Z,73.58
2023-01-29T20:16:22.690Z,73.14
2023-01-29T20:18:49.434Z,73.20
2023-01-29T20:21:20.477Z,73.39
2023-01-29T20:23:50.191Z,73.42
2023-01-29T20:26:17.233Z,73.00
2023-01-29T20:28:46.642Z,73.18
2023-01-29T20:31:14.069Z,73.40
2023-01-29T20:33:40.678Z,73.51
2023-01-29T20:36:09.921Z,73.78
2023-01-29T20:38:36.684Z,74.11
2023-01-29T20:41:13.245Z,74.34
2023-01-29T20:43:40.389Z,74.30
2023-01-29T20:46:07.403Z,73.98
2023-01-29T20:48:34.135Z,73.65
2023-01-29T20:51:06.302Z,74.45
2023-01-29T20:53:32.937Z,73.95
2023-01-29T20:55:59.610Z,74.36
2023-01-29T20:58:26.529Z,74.18
2023-01-29T21:00:53.229Z,73.95
2023-01-29T21:03:19.889Z,74.34
2023-01-29T21:05:46.633Z,74.58
2023-01-29T21:08:13.272Z,74.32
2023-01-29T21:10:41.464Z,74.48
2023-01-29T21:13:09.205Z,74.65
2023-01-29T21:15:35.868Z,74.80
2023-01-29T21:18:04.400Z,74.94
2023-01-29T21:20:31.690Z,74.85
2023-01-29T21:22:58.385Z,74.97
2023-01-29T21:25:25.074Z,74.99
2023-01-29T21:27:51.715Z,75.07
2023-01-29T21:30:18.801Z,74.89
2023-01-29T21:32:46.081Z,74.74
2023-01-29T21:35:13.042Z,75.28
2023-01-29T21:37:39.666Z,75.15
2023-01-29T21:40:07.170Z,74.42
2023-01-29T21:42:52.447Z,75.36
2023-01-29T21:45:19.479Z,74.95
2023-01-29T21:47:46.408Z,75.31
2023-01-29T21:50:13.823Z,75.54
2023-01-29T21:52:40.561Z,75.78
2023-01-29T21:55:07.611Z,75.57
2023-01-29T21:57:34.306Z,75.57
2023-01-29T22:00:01.038Z,75.00
2023-01-29T22:02:30.793Z,75.63
2023-01-29T22:05:12.438Z,75.94
2023-01-29T22:07:44.720Z,75.37
2023-01-29T22:10:12.381Z,75.28
2023-01-29T22:12:39.804Z,75.26
2023-01-29T22:15:07.447Z,75.47
2023-01-29T22:17:35.148Z,75.18
2023-01-29T22:20:02.219Z,75.41
2023-01-29T22:22:28.944Z,75.45
2023-01-29T22:24:57.612Z,75.60
2023-01-29T22:27:24.595Z,75.26
2023-01-29T22:29:51.446Z,75.05
2023-01-29T22:32:18.335Z,75.57
2023-01-29T22:34:45.018Z,75.74
2023-01-29T22:37:11.600Z,75.12
2023-01-29T22:39:38.238Z,75.56
2023-01-29T22:42:04.992Z,75.05
2023-01-29T22:44:31.610Z,75.94
2023-01-29T22:46:58.355Z,75.79
2023-01-29T22:49:25.680Z,75.82
2023-01-29T22:52:09.876Z,75.91
2023-01-29T22:54:41.812Z,76.03
2023-01-29T22:57:11.369Z,76.01
2023-01-29T22:59:38.506Z,76.23
2023-01-29T23:02:05.946Z,76.03
2023-01-29T23:04:32.791Z,76.19
2023-01-29T23:06:59.438Z,76.10
2023-01-29T23:09:26.219Z,76.58
2023-01-29T23:11:52.864Z,76.92
2023-01-29T23:14:19.576Z,76.27
2023-01-29T23:16:46.241Z,76.67
2023-01-29T23:19:12.961Z,76.91
2023-01-29T23:21:39.789Z,76.92
2023-01-29T23:24:07.983Z,77.21
2023-01-29T23:26:53.478Z,77.03
2023-01-29T23:29:20.461Z,77.13
2023-01-29T23:31:47.242Z,77.08
2023-01-29T23:34:14.396Z,76.94
2023-01-29T23:36:41.331Z,77.25
2023-01-29T23:39:08.139Z,76.93
2023-01-29T23:41:35.085Z,77.06
2023-01-29T23:44:01.837Z,77.34
2023-01-29T23:46:28.584Z,77.64
2023-01-29T23:48:55.347Z,77.54
2023-01-29T23:51:22.249Z,77.08
2023-01-29T23:53:48.899Z,77.42
2023-01-29T23:56:15.913Z,76.93
2023-01-29T23:58:42.637Z,77.31
